Racecast

Azalea Davis

Technique Track (VA) · 6 · Compare head to head

Athlete rating 125.3 2026 TF season
Best race 125.5 TF
Races 52
Seasons 2 2024 — 2026

RankedNation #10488·VA #306·Team #2 ?

Speed rating — all races

Track & Field

TF speed rating

2026 TF 122.7

Technique Track (VA) · Grade 6

Date Meet Event Result Place Rating Difficulty PR/SR Flags
2026-06-13 AAU Virginia District Qualifier - South 800m 2:26.96 2nd · 1st on team 124.6 -0.033 ★PR SR
2026-06-13 AAU Virginia District Qualifier - South 400m 59.2 2nd · 1st on team -0.033 ★PR SR
2026-06-13 AAU Virginia District Qualifier - South 200m 27.04 4th · 1st on team -0.033 ★PR SR
2026-05-30 Va Beach Flames Invite 400m 59.9 2nd · 1st on team -0.023 PR SR
2026-05-30 Va Beach Flames Invite 800m 2:27.77 1st · 1st on team 125.2 -0.023
2026-05-24 HR Hurricanes CAT 5 Invite 800m 2:27.6 1st · 1st on team 123.8 -0.035
2026-05-24 HR Hurricanes CAT 5 Invite 200m 28.21 8th · 1st on team -0.035
2026-05-24 HR Hurricanes CAT 5 Invite 400m 1:00.41 1st · 1st on team -0.035 PR SR
2026-05-16 2026 Technique Relays 800m 2:31.14 1st · 1st on team 120.9 -0.035
2026-05-16 2026 Technique Relays 400m 1:01.59 2nd · 1st on team -0.035
2026-03-06 AAU Indoor National Championship 800m 2:29.86 4th · 1st on team 122.3 -0.036
2026-03-06 AAU Indoor National Championship 400m 1:02.39 8th · 1st on team -0.036
2026-02-28 BWSP Queens and Kings Championships 200m 28.31 4th · 1st on team -0.024
2026-02-28 BWSP Queens and Kings Championships 400m 1:00.67 3rd · 1st on team -0.024 PR SR
2026-02-28 BWSP Queens and Kings Championships 800m 2:28.5 1st · 1st on team 124.4 -0.024
2026-02-22 3rd Annual HRH Winter Storm Classic 800m 2:27.29 1st · 1st on team 125.5 -0.024 PR ★R SR RSR
2026-02-22 3rd Annual HRH Winter Storm Classic 400m 1:02.97 2nd · 1st on team -0.024
2026-02-22 3rd Annual HRH Winter Storm Classic 200m 28.84 8th · 1st on team -0.024
2026-01-31 BWSP Queens and Kings - Meet 3 200m 28.53 3rd · 1st on team -0.024
2026-01-31 BWSP Queens and Kings - Meet 3 800m 2:34.96 1st · 1st on team 119.3 -0.024
2026-01-31 BWSP Queens and Kings - Meet 3 400m 1:05.26 4th · 1st on team -0.024
2026-01-17 BWSP Queens and Kings - Meet 2 200m 27.71 2nd · 1st on team -0.024 PR SR
2026-01-17 BWSP Queens and Kings - Meet 2 400m 1:02.81 3rd · 1st on team -0.024 PR SR
2026-01-17 BWSP Queens and Kings - Meet 2 800m 2:35.98 1st · 1st on team 118.5 -0.024
2026-01-03 BWSP Queens and Kings - Meet 1 400m 1:03.24 1st · 1st on team -0.024 PR SR
2026-01-03 BWSP Queens and Kings - Meet 1 800m 2:30.43 1st · 1st on team 122.8 -0.024 PR R SR RSR

2024 TF 100.7

Technique Track (VA) · Grade 10

Date Meet Event Result Place Rating Difficulty PR/SR Flags
2024-06-01 VB Flames Invitational 200m 29.88 6th · 1st on team -0.023 PR SR
2024-06-01 VB Flames Invitational 100m 15.17 18th · 1st on team -0.023
2024-06-01 VB Flames Invitational 400m 1:06.23 3rd · 1st on team -0.023
2024-05-26 HR Hurricanes CAT 5 Invite (CANCELED) (CANCELED) 400m 1:06 1st · 1st on team -0.019 PR SR
2024-05-26 HR Hurricanes CAT 5 Invite (CANCELED) (CANCELED) 200m 30.28 1st · 1st on team -0.019 PR SR
2024-05-26 HR Hurricanes CAT 5 Invite (CANCELED) (CANCELED) 800m 3:02.62 2nd · 1st on team 102.2 -0.019
2024-05-11 2024 EE Lightning "Legends" Invite 200m 30.99 6th · 1st on team -0.043 PR SR
2024-05-11 2024 EE Lightning "Legends" Invite 400m 1:07.96 5th · 1st on team -0.043 PR SR
2024-05-11 2024 EE Lightning "Legends" Invite 100m 14.86 6th · 1st on team -0.043 ★PR SR
2024-05-05 2024 Technique Relays 400m 1:09.42 1st · 1st on team -0.015 PR SR
2024-04-20 Darius Dixon Invite 800m 3:12.03 7th · 1st on team 96.9 -0.019
2024-04-20 Darius Dixon Invite 200m 31.99 4th · 1st on team -0.019 PR SR
2024-04-20 Darius Dixon Invite 400m 1:09.91 2nd · 1st on team -0.019 PR SR
2024-03-03 AAU Indoor National Champonships 200m 33.16 44th · 1st on team -0.036 PR SR
2024-03-03 AAU Indoor National Champonships 800m 3:01.41 19th · 1st on team 101.3 -0.036
2024-03-03 AAU Indoor National Champonships 400m 1:16.33 24th · 1st on team -0.036
2024-02-24 BWSP Queens and Kings: Meet 4 800m 2:59.94 2nd · 1st on team 103.0 -0.024 PR R SR RSR
2024-02-24 BWSP Queens and Kings: Meet 4 400m 1:14.37 5th · 1st on team -0.024 PR SR
2024-02-18 HRH Winter Storm Classic 800m 3:05.52 3rd · 1st on team 99.9 -0.024 PR R SR RSR
2024-02-18 HRH Winter Storm Classic 400m 1:17.64 8th · 1st on team -0.024
2024-02-03 BWSP Queens and Kings 200m 33.93 13th · 1st on team -0.014 PR SR
2024-02-03 BWSP Queens and Kings 400m 1:17.2 6th · 1st on team -0.014 PR SR
2024-01-20 BWSP Queens and Kings 400m 1:18.8 7th · 1st on team -0.014
2024-01-20 BWSP Queens and Kings 55m 9.59 25th · 1st on team -0.014 ★PR SR
2024-01-06 BWSP Queens and Kings 200m 35.2 21st · 1st on team -0.024 PR SR
2024-01-06 BWSP Queens and Kings 400m 1:18.46 10th · 1st on team -0.024 PR SR